createdAt,value
2019-05-21T00:02:07.282Z,97161.83
2019-05-21T00:04:38.857Z,97161.51
2019-05-21T00:07:10.448Z,97163.13
2019-05-21T00:09:42.019Z,97158.75
2019-05-21T00:12:13.586Z,97170.70
2019-05-21T00:14:45.157Z,97163.48
2019-05-21T00:17:16.775Z,97163.78
2019-05-21T00:19:48.296Z,97166.75
2019-05-21T00:22:19.876Z,97164.94
2019-05-21T00:24:52.773Z,97166.41
2019-05-21T00:27:24.418Z,97158.53
2019-05-21T00:30:51.204Z,97165.61
2019-05-21T00:34:17.814Z,97167.56
2019-05-21T00:37:43.326Z,97168.88
2019-05-21T00:41:09.099Z,97169.25
2019-05-21T00:43:59.458Z,97170.19
2019-05-21T00:46:31.055Z,97167.72
2019-05-21T00:49:02.661Z,97165.54
2019-05-21T00:51:34.236Z,97164.89
2019-05-21T00:54:05.819Z,97166.70
2019-05-21T00:56:37.427Z,97161.80
2019-05-21T00:59:08.997Z,97163.43
2019-05-21T01:01:40.615Z,97163.58
2019-05-21T01:04:12.267Z,97170.64
2019-05-21T01:06:44.223Z,97165.24
2019-05-21T01:09:15.791Z,97169.03
2019-05-21T01:11:47.401Z,97169.38
2019-05-21T01:14:18.959Z,97172.16
2019-05-21T01:16:50.554Z,97171.50
2019-05-21T01:19:22.115Z,97176.09
2019-05-21T01:21:53.700Z,97181.84
2019-05-21T01:24:25.283Z,97182.91
2019-05-21T01:26:56.876Z,97176.66
2019-05-21T01:29:28.466Z,97175.66
2019-05-21T01:32:01.122Z,97182.86
2019-05-21T01:34:33.096Z,97182.70
2019-05-21T01:37:04.936Z,97185.48
2019-05-21T01:39:37.596Z,97178.42
2019-05-21T01:42:09.153Z,97181.70
2019-05-21T01:44:40.741Z,97183.00
2019-05-21T01:47:12.310Z,97187.14
2019-05-21T01:49:43.908Z,97179.07
2019-05-21T01:52:16.672Z,97176.16
2019-05-21T01:54:48.270Z,97175.28
2019-05-21T01:57:19.847Z,97173.97
2019-05-21T01:59:51.419Z,97177.41
2019-05-21T02:02:23.018Z,97177.09
2019-05-21T02:04:54.572Z,97174.64
2019-05-21T02:07:26.148Z,97174.64
2019-05-21T02:10:00.935Z,97178.58
2019-05-21T02:12:32.509Z,97175.95
2019-05-21T02:15:04.100Z,97174.64
2019-05-21T02:17:35.667Z,97182.05
2019-05-21T02:20:07.718Z,97183.00
2019-05-21T02:22:39.298Z,97184.81
2019-05-21T02:25:11.017Z,97177.70
2019-05-21T02:27:42.614Z,97185.43
2019-05-21T02:30:14.574Z,97182.44
2019-05-21T02:32:46.155Z,97186.59
2019-05-21T02:35:17.726Z,97188.34
2019-05-21T02:37:49.303Z,97192.12
2019-05-21T02:40:21.524Z,97189.64
2019-05-21T02:42:53.172Z,97184.05
2019-05-21T02:45:24.739Z,97190.95
2019-05-21T02:47:57.367Z,97188.42
2019-05-21T02:50:28.962Z,97188.08
2019-05-21T02:53:00.532Z,97183.18
2019-05-21T02:55:32.180Z,97192.50
2019-05-21T02:58:03.740Z,97195.42
2019-05-21T03:01:03.291Z,97196.09
2019-05-21T03:03:36.441Z,97198.05
2019-05-21T03:06:13.602Z,97196.33
2019-05-21T03:08:41.293Z,97195.16
2019-05-21T03:11:12.862Z,97201.22
2019-05-21T03:13:44.425Z,97204.69
2019-05-21T03:16:16.032Z,97208.94
2019-05-21T03:18:47.587Z,97197.94
2019-05-21T03:21:19.162Z,97201.81
2019-05-21T03:23:50.748Z,97203.77
2019-05-21T03:26:22.326Z,97199.16
2019-05-21T03:28:53.884Z,97208.34
2019-05-21T03:31:25.502Z,97206.33
2019-05-21T03:33:57.049Z,97207.98
2019-05-21T03:36:33.384Z,97205.52
2019-05-21T03:39:02.146Z,97208.34
2019-05-21T03:41:33.732Z,97210.26
2019-05-21T03:44:05.362Z,97210.55
2019-05-21T03:46:36.917Z,97215.80
2019-05-21T03:49:08.498Z,97215.19
2019-05-21T03:51:40.076Z,97212.88
2019-05-21T03:54:11.668Z,97217.31
2019-05-21T03:56:43.235Z,97213.23
2019-05-21T03:59:14.875Z,97219.12
2019-05-21T04:01:46.455Z,97218.13
2019-05-21T04:04:18.021Z,97218.77
2019-05-21T04:06:52.276Z,97231.73
2019-05-21T04:09:22.886Z,97230.36
2019-05-21T04:11:54.442Z,97230.04
2019-05-21T04:14:50.874Z,97231.00
2019-05-21T04:17:34.360Z,97226.25
2019-05-21T04:20:03.465Z,97233.27
2019-05-21T04:22:36.683Z,97235.08
2019-05-21T04:25:08.264Z,97232.10
2019-05-21T04:27:39.908Z,97231.23
2019-05-21T04:30:13.064Z,97236.00
2019-05-21T04:32:44.610Z,97234.98
2019-05-21T04:35:16.338Z,97234.48
2019-05-21T04:37:47.903Z,97236.33
2019-05-21T04:40:19.497Z,97240.47
2019-05-21T04:42:51.052Z,97237.48
2019-05-21T04:45:22.663Z,97242.87
2019-05-21T04:47:54.233Z,97240.55
2019-05-21T04:50:26.881Z,97242.84
2019-05-21T04:52:58.436Z,97252.09
2019-05-21T04:55:30.066Z,97250.27
2019-05-21T04:58:01.638Z,97250.58
2019-05-21T05:00:33.228Z,97244.03
2019-05-21T05:03:04.826Z,97245.34
2019-05-21T05:05:36.429Z,97247.78
2019-05-21T05:08:07.980Z,97240.24
2019-05-21T05:10:39.585Z,97246.27
2019-05-21T05:13:11.169Z,97249.41
2019-05-21T05:15:42.923Z,97250.27
2019-05-21T05:18:14.503Z,97243.64
2019-05-21T05:20:46.098Z,97241.55
2019-05-21T05:23:17.733Z,97245.95
2019-05-21T05:25:49.257Z,97244.92
2019-05-21T05:28:20.849Z,97248.29
2019-05-21T05:30:52.414Z,97243.41
2019-05-21T05:33:24.005Z,97238.55
2019-05-21T05:35:55.593Z,97233.80
2019-05-21T05:38:27.177Z,97244.57
2019-05-21T05:40:58.782Z,97245.59
2019-05-21T05:43:30.375Z,97254.09
2019-05-21T05:46:01.941Z,97249.00
2019-05-21T05:48:35.207Z,97238.52
2019-05-21T05:51:07.749Z,97235.69
2019-05-21T05:53:57.256Z,97241.55
2019-05-21T05:56:30.033Z,97232.49
2019-05-21T05:59:01.607Z,97245.24
2019-05-21T06:01:34.467Z,97239.54
2019-05-21T06:04:06.180Z,97237.73
2019-05-21T06:06:37.778Z,97215.69
2019-05-21T06:09:09.355Z,97238.73
2019-05-21T06:11:40.945Z,97236.94
2019-05-21T06:14:12.554Z,97219.44
2019-05-21T06:16:44.147Z,97223.75
2019-05-21T06:19:15.720Z,97222.63
2019-05-21T06:21:47.295Z,97216.26
2019-05-21T06:24:18.866Z,97213.03
2019-05-21T06:26:50.426Z,97229.92
2019-05-21T06:29:22.013Z,97219.95
2019-05-21T06:31:53.601Z,97223.06
2019-05-21T06:34:25.200Z,97228.30
2019-05-21T06:36:57.852Z,97236.58
2019-05-21T06:39:29.439Z,97226.53
2019-05-21T06:42:01.039Z,97238.46
2019-05-21T06:44:32.722Z,97227.20
2019-05-21T06:47:04.273Z,97232.52
2019-05-21T06:49:35.980Z,97229.83
2019-05-21T06:52:07.551Z,97230.46
2019-05-21T06:54:39.148Z,97232.83
2019-05-21T06:57:10.760Z,97241.61
2019-05-21T06:59:42.340Z,97238.70
2019-05-21T07:02:14.013Z,97236.44
2019-05-21T07:04:45.590Z,97237.33
2019-05-21T07:07:17.199Z,97249.29
2019-05-21T07:09:48.743Z,97243.06
2019-05-21T07:12:20.341Z,97250.70
2019-05-21T07:14:51.901Z,97247.66
2019-05-21T07:17:23.505Z,97254.35
2019-05-21T07:19:55.162Z,97258.35
2019-05-21T07:22:26.735Z,97259.73
2019-05-21T07:24:58.302Z,97257.64
2019-05-21T07:27:29.935Z,97259.84
2019-05-21T07:30:01.500Z,97259.48
2019-05-21T07:32:33.161Z,97258.53
2019-05-21T07:35:05.185Z,97255.63
2019-05-21T07:37:37.739Z,97254.03
2019-05-21T07:40:09.693Z,97261.89
2019-05-21T07:42:42.770Z,97265.17
2019-05-21T07:45:14.482Z,97276.16
2019-05-21T07:47:46.071Z,97271.73
2019-05-21T07:50:17.771Z,97276.69
2019-05-21T07:52:49.358Z,97276.02
2019-05-21T07:55:20.950Z,97284.41
2019-05-21T07:57:52.564Z,97283.45
2019-05-21T08:00:25.275Z,97280.83
2019-05-21T08:02:56.888Z,97280.02
2019-05-21T08:05:28.434Z,97284.12
2019-05-21T08:07:59.998Z,97284.26
2019-05-21T08:10:31.578Z,97293.14
2019-05-21T08:13:03.227Z,97296.58
2019-05-21T08:15:34.816Z,97292.19
2019-05-21T08:18:06.408Z,97298.39
2019-05-21T08:20:37.965Z,97299.02
2019-05-21T08:23:09.552Z,97304.62
2019-05-21T08:25:41.104Z,97310.85
2019-05-21T08:28:12.711Z,97305.68
2019-05-21T08:30:44.307Z,97312.02
2019-05-21T08:33:15.873Z,97309.75
2019-05-21T08:35:47.762Z,97315.48
2019-05-21T08:38:19.388Z,97310.11
2019-05-21T08:40:50.968Z,97318.07
2019-05-21T08:43:22.535Z,97309.28
2019-05-21T08:45:54.102Z,97317.22
2019-05-21T08:48:25.666Z,97321.67
2019-05-21T08:50:57.262Z,97323.41
2019-05-21T08:53:29.886Z,97323.26
2019-05-21T08:56:01.501Z,97318.48
2019-05-21T08:58:33.096Z,97327.80
2019-05-21T09:01:04.715Z,97323.41
2019-05-21T09:03:36.274Z,97326.17
2019-05-21T09:06:07.853Z,97329.81
2019-05-21T09:08:39.401Z,97326.48
2019-05-21T09:11:11.024Z,97332.30
2019-05-21T09:13:42.614Z,97329.81
2019-05-21T09:16:14.225Z,97325.87
2019-05-21T09:18:45.798Z,97323.14
2019-05-21T09:21:18.470Z,97335.62
2019-05-21T09:23:50.035Z,97335.05
2019-05-21T09:26:21.670Z,97346.70
2019-05-21T09:28:53.261Z,97349.11
2019-05-21T09:31:24.857Z,97355.38
2019-05-21T09:33:56.447Z,97349.47
2019-05-21T09:36:28.279Z,97356.59
2019-05-21T09:38:59.956Z,97359.95
2019-05-21T09:41:31.530Z,97360.53
2019-05-21T09:44:04.353Z,97365.05
2019-05-21T09:46:35.906Z,97361.30
2019-05-21T09:49:07.480Z,97361.50
2019-05-21T09:51:39.057Z,97370.89
2019-05-21T09:54:10.674Z,97370.19
2019-05-21T09:56:42.240Z,97379.37
2019-05-21T09:59:37.113Z,97380.01
2019-05-21T10:02:12.949Z,97373.73
2019-05-21T10:04:44.552Z,97378.20
2019-05-21T10:07:16.122Z,97375.41
2019-05-21T10:09:47.868Z,97385.12
2019-05-21T10:12:19.562Z,97386.08
2019-05-21T10:14:51.141Z,97396.10
2019-05-21T10:17:22.734Z,97382.98
2019-05-21T10:19:54.368Z,97394.58
2019-05-21T10:22:25.957Z,97398.30
2019-05-21T10:24:57.612Z,97403.08
2019-05-21T10:27:29.216Z,97408.51
2019-05-21T10:30:01.857Z,97405.42
2019-05-21T10:32:33.490Z,97409.35
2019-05-21T10:35:05.566Z,97404.11
2019-05-21T10:37:37.531Z,97410.98
2019-05-21T10:40:09.335Z,97417.78
2019-05-21T10:42:41.250Z,97411.83
2019-05-21T10:45:13.060Z,97421.97
2019-05-21T10:47:44.646Z,97421.16
2019-05-21T10:50:16.436Z,97425.41
2019-05-21T10:52:48.001Z,97424.37
2019-05-21T10:55:19.565Z,97420.02
2019-05-21T10:57:51.167Z,97436.95
2019-05-21T11:00:23.903Z,97438.94
2019-05-21T11:03:03.825Z,97440.25
2019-05-21T11:05:44.520Z,97446.48
2019-05-21T11:08:24.943Z,97449.64
2019-05-21T11:10:49.720Z,97447.16
2019-05-21T11:13:21.524Z,97450.14
2019-05-21T11:15:53.168Z,97453.23
2019-05-21T11:18:24.755Z,97465.59
2019-05-21T11:20:56.318Z,97459.31
2019-05-21T11:23:27.914Z,97462.27
2019-05-21T11:25:59.513Z,97468.95
2019-05-21T11:28:31.144Z,97469.45
2019-05-21T11:31:02.746Z,97470.84
2019-05-21T11:33:34.349Z,97477.67
2019-05-21T11:36:05.944Z,97472.36
2019-05-21T11:38:40.117Z,97479.84
2019-05-21T11:41:10.801Z,97480.02
2019-05-21T11:43:42.532Z,97487.14
2019-05-21T11:46:14.077Z,97492.52
2019-05-21T11:48:45.734Z,97495.89
2019-05-21T11:51:18.407Z,97502.63
2019-05-21T11:53:49.990Z,97506.28
2019-05-21T11:56:21.554Z,97505.33
2019-05-21T11:58:53.168Z,97510.64
2019-05-21T12:01:24.771Z,97514.77
2019-05-21T12:03:56.445Z,97511.04
2019-05-21T12:06:28.044Z,97513.66
2019-05-21T12:08:59.678Z,97518.55
2019-05-21T12:11:31.274Z,97515.80
2019-05-21T12:14:02.849Z,97521.61
2019-05-21T12:16:34.448Z,97522.48
2019-05-21T12:19:08.203Z,97526.78
2019-05-21T12:21:39.362Z,97523.06
2019-05-21T12:24:10.955Z,97531.47
2019-05-21T12:26:42.538Z,97536.36
2019-05-21T12:29:14.096Z,97545.97
2019-05-21T12:31:45.703Z,97546.11
2019-05-21T12:34:17.286Z,97546.92
2019-05-21T12:36:48.902Z,97543.80
2019-05-21T12:39:20.472Z,97557.63
2019-05-21T12:41:52.077Z,97558.52
2019-05-21T12:44:23.657Z,97557.39
2019-05-21T12:46:55.268Z,97556.89
2019-05-21T12:49:26.880Z,97574.31
2019-05-21T12:51:58.409Z,97570.25
2019-05-21T12:54:30.033Z,97576.00
2019-05-21T12:57:01.649Z,97576.58
2019-05-21T12:59:33.224Z,97580.47
2019-05-21T13:02:04.833Z,97585.25
2019-05-21T13:04:36.416Z,97585.25
2019-05-21T13:07:08.029Z,97591.31
2019-05-21T13:09:39.635Z,97591.17
2019-05-21T13:12:11.229Z,97601.52
2019-05-21T13:14:42.842Z,97608.94
2019-05-21T13:17:14.430Z,97608.44
2019-05-21T13:19:45.979Z,97617.13
2019-05-21T13:22:17.571Z,97622.73
2019-05-21T13:24:49.294Z,97617.69
2019-05-21T13:27:20.878Z,97625.41
2019-05-21T13:29:52.469Z,97621.02
2019-05-21T13:32:24.030Z,97633.28
2019-05-21T13:34:55.655Z,97628.17
2019-05-21T13:37:27.232Z,97632.88
2019-05-21T13:39:58.889Z,97637.09
2019-05-21T13:42:30.465Z,97644.19
2019-05-21T13:45:02.100Z,97642.83
2019-05-21T13:47:34.746Z,97645.17
2019-05-21T13:50:07.342Z,97639.16
2019-05-21T13:52:39.057Z,97647.23
2019-05-21T13:55:10.946Z,97654.62
2019-05-21T13:57:42.641Z,97660.22
2019-05-21T14:00:18.898Z,97660.22
2019-05-21T14:02:50.868Z,97658.55
2019-05-21T14:05:23.326Z,97665.39
2019-05-21T14:07:54.929Z,97667.74
2019-05-21T14:10:26.763Z,97672.03
2019-05-21T14:12:58.379Z,97662.98
2019-05-21T14:15:30.011Z,97673.67
2019-05-21T14:18:01.659Z,97674.71
2019-05-21T14:20:33.264Z,97673.22
2019-05-21T14:23:05.252Z,97683.35
2019-05-21T14:25:36.828Z,97684.94
2019-05-21T14:28:08.434Z,97679.34
2019-05-21T14:30:40.058Z,97685.56
2019-05-21T14:33:11.659Z,97695.57
2019-05-21T14:35:43.232Z,97694.75
2019-05-21T14:38:14.857Z,97693.36
2019-05-21T14:40:46.512Z,97695.02
2019-05-21T14:43:18.153Z,97708.88
2019-05-21T14:45:49.770Z,97710.45
2019-05-21T14:48:21.357Z,97712.48
2019-05-21T14:50:52.979Z,97714.66
2019-05-21T14:53:24.583Z,97715.42
2019-05-21T14:55:56.589Z,97718.31
2019-05-21T14:58:28.229Z,97729.17
2019-05-21T15:00:59.821Z,97734.28
2019-05-21T15:03:31.413Z,97728.45
2019-05-21T15:06:03.054Z,97738.62
2019-05-21T15:08:34.680Z,97742.88
2019-05-21T15:11:06.352Z,97740.52
2019-05-21T15:13:38.008Z,97748.39
2019-05-21T15:16:09.651Z,97747.08
2019-05-21T15:18:41.269Z,97748.92
2019-05-21T15:21:21.154Z,97752.00
2019-05-21T15:23:52.825Z,97752.14
2019-05-21T15:26:24.522Z,97766.56
2019-05-21T15:28:57.232Z,97758.70
2019-05-21T15:31:28.824Z,97761.81
2019-05-21T15:34:00.425Z,97761.31
2019-05-21T15:36:32.027Z,97760.99
2019-05-21T15:39:04.862Z,97767.81
2019-05-21T15:41:36.595Z,97764.20
2019-05-21T15:44:08.227Z,97768.14
2019-05-21T15:46:48.778Z,97768.27
2019-05-21T15:49:13.293Z,97773.38
2019-05-21T15:51:44.899Z,97776.72
2019-05-21T15:54:16.530Z,97773.38
2019-05-21T15:56:48.215Z,97776.86
2019-05-21T15:59:19.796Z,97780.92
2019-05-21T16:01:51.407Z,97786.49
2019-05-21T16:04:22.985Z,97793.28
2019-05-21T16:06:54.625Z,97788.03
2019-05-21T16:09:26.528Z,97790.52
2019-05-21T16:11:58.171Z,97797.34
2019-05-21T16:14:30.828Z,97799.96
2019-05-21T16:17:02.532Z,97798.30
2019-05-21T16:19:34.130Z,97798.78
2019-05-21T16:22:05.764Z,97803.89
2019-05-21T16:24:37.363Z,97801.54
2019-05-21T16:27:09.023Z,97795.34
2019-05-21T16:29:40.611Z,97801.27
2019-05-21T16:32:13.358Z,97802.98
2019-05-21T16:34:44.919Z,97802.56
2019-05-21T16:37:16.943Z,97807.44
2019-05-21T16:39:48.601Z,97808.98
2019-05-21T16:42:20.229Z,97812.45
2019-05-21T16:44:51.844Z,97812.00
2019-05-21T16:47:23.566Z,97810.45
2019-05-21T16:49:55.132Z,97815.34
2019-05-21T16:52:26.759Z,97819.14
2019-05-21T16:54:58.378Z,97822.61
2019-05-21T16:57:30.155Z,97825.23
2019-05-21T17:00:01.725Z,97821.63
2019-05-21T17:02:34.995Z,97833.23
2019-05-21T17:05:06.787Z,97837.06
2019-05-21T17:07:38.375Z,97836.80
2019-05-21T17:10:11.823Z,97838.34
2019-05-21T17:12:43.401Z,97845.45
2019-05-21T17:15:15.488Z,97842.21
2019-05-21T17:17:47.158Z,97845.69
2019-05-21T17:20:18.915Z,97846.38
2019-05-21T17:22:50.531Z,97849.09
2019-05-21T17:25:23.271Z,97848.60
2019-05-21T17:27:54.893Z,97856.34
2019-05-21T17:30:26.528Z,97850.28
2019-05-21T17:32:58.181Z,97853.84
2019-05-21T17:35:29.880Z,97849.30
2019-05-21T17:38:01.566Z,97860.41
2019-05-21T17:40:33.242Z,97859.35
2019-05-21T17:43:04.880Z,97852.93
2019-05-21T17:45:36.526Z,97857.22
2019-05-21T17:48:08.418Z,97859.13
2019-05-21T17:50:41.094Z,97864.37
2019-05-21T17:53:12.858Z,97865.67
2019-05-21T17:55:44.510Z,97865.94
2019-05-21T17:58:17.188Z,97866.81
2019-05-21T18:00:52.496Z,97876.25
2019-05-21T18:03:25.302Z,97874.94
2019-05-21T18:05:56.976Z,97882.80
2019-05-21T18:08:30.355Z,97882.57
2019-05-21T18:11:02.234Z,97892.59
2019-05-21T18:13:33.984Z,97896.79
2019-05-21T18:16:08.188Z,97898.79
2019-05-21T18:18:39.809Z,97898.17
2019-05-21T18:21:11.993Z,97897.34
2019-05-21T18:23:43.982Z,97906.03
2019-05-21T18:26:15.625Z,97909.53
2019-05-21T18:28:47.244Z,97913.34
2019-05-21T18:31:18.881Z,97916.31
2019-05-21T18:33:50.596Z,97920.37
2019-05-21T18:36:22.462Z,97921.58
2019-05-21T18:38:54.195Z,97926.20
2019-05-21T18:41:25.867Z,97931.83
2019-05-21T18:43:57.610Z,97932.32
2019-05-21T18:46:29.308Z,97932.70
2019-05-21T18:49:00.944Z,97935.20
2019-05-21T18:51:32.609Z,97937.48
2019-05-21T18:54:04.346Z,97944.50
2019-05-21T18:56:36.054Z,97952.23
2019-05-21T18:59:08.322Z,97956.41
2019-05-21T19:01:40.019Z,97958.58
2019-05-21T19:04:11.677Z,97957.84
2019-05-21T19:06:43.338Z,97963.41
2019-05-21T19:09:15.002Z,97961.41
2019-05-21T19:11:46.606Z,97967.83
2019-05-21T19:14:18.457Z,97973.20
2019-05-21T19:16:50.044Z,97976.18
2019-05-21T19:19:21.723Z,97980.45
2019-05-21T19:21:53.348Z,97984.38
2019-05-21T19:24:24.953Z,97982.48
2019-05-21T19:26:56.593Z,97984.38
2019-05-21T19:29:28.223Z,97992.03
2019-05-21T19:31:59.852Z,97985.97
2019-05-21T19:34:31.488Z,97994.54
2019-05-21T19:37:03.073Z,97999.58
2019-05-21T19:39:34.919Z,98010.30
2019-05-21T19:42:06.670Z,98011.48
2019-05-21T19:44:38.386Z,98013.13
2019-05-21T19:47:10.107Z,98011.00
2019-05-21T19:49:41.770Z,98011.25
2019-05-21T19:52:15.217Z,98016.61
2019-05-21T19:54:46.861Z,98018.75
2019-05-21T19:57:19.897Z,98025.17
2019-05-21T19:59:52.496Z,98025.78
2019-05-21T20:02:24.287Z,98031.84
2019-05-21T20:04:56.499Z,98031.64
2019-05-21T20:07:28.218Z,98038.40
2019-05-21T20:10:00.396Z,98034.72
2019-05-21T20:12:32.416Z,98039.38
2019-05-21T20:15:04.001Z,98043.06
2019-05-21T20:17:36.852Z,98042.08
2019-05-21T20:20:09.758Z,98046.02
2019-05-21T20:22:42.599Z,98048.05
2019-05-21T20:25:15.743Z,98048.39
2019-05-21T20:27:47.787Z,98048.27
2019-05-21T20:30:23.022Z,98055.30
2019-05-21T20:32:55.145Z,98053.05
2019-05-21T20:35:30.029Z,98049.69
2019-05-21T20:38:01.662Z,98048.14
2019-05-21T20:40:33.494Z,98052.07
2019-05-21T20:43:06.015Z,98055.67
2019-05-21T20:45:39.974Z,98050.42
2019-05-21T20:48:13.843Z,98051.01
2019-05-21T20:50:46.170Z,98051.01
2019-05-21T20:53:18.429Z,98060.18
2019-05-21T20:55:50.214Z,98054.61
2019-05-21T20:58:22.417Z,98059.84
2019-05-21T21:01:00.946Z,98065.58
2019-05-21T21:03:34.294Z,98066.52
2019-05-21T21:06:06.212Z,98067.10
2019-05-21T21:08:38.848Z,98067.22
2019-05-21T21:11:11.282Z,98068.41
2019-05-21T21:13:44.616Z,98069.97
2019-05-21T21:16:16.435Z,98068.90
2019-05-21T21:18:48.529Z,98075.45
2019-05-21T21:21:20.359Z,98069.84
2019-05-21T21:23:52.273Z,98081.18
2019-05-21T21:26:24.351Z,98079.75
2019-05-21T21:28:55.960Z,98079.87
2019-05-21T21:31:27.578Z,98085.45
2019-05-21T21:33:59.155Z,98079.87
2019-05-21T21:36:31.682Z,98087.36
2019-05-21T21:39:05.056Z,98089.04
2019-05-21T21:41:38.850Z,98097.27
2019-05-21T21:44:10.745Z,98090.23
2019-05-21T21:46:42.613Z,98097.60
2019-05-21T21:49:15.798Z,98100.95
2019-05-21T21:51:47.665Z,98095.23
2019-05-21T21:54:20.717Z,98092.85
2019-05-21T21:56:52.454Z,98098.67
2019-05-21T21:59:24.010Z,98085.69
2019-05-21T22:02:03.783Z,98089.98
2019-05-21T22:04:37.081Z,98090.69
2019-05-21T22:07:08.906Z,98099.28
2019-05-21T22:09:40.976Z,98104.28
2019-05-21T22:12:16.798Z,98101.41
2019-05-21T22:14:57.509Z,98105.00
2019-05-21T22:17:29.188Z,98108.33
2019-05-21T22:20:01.452Z,98107.02
2019-05-21T22:22:34.467Z,98104.64
2019-05-21T22:25:06.318Z,98105.70
2019-05-21T22:27:38.164Z,98107.50
2019-05-21T22:30:10.586Z,98110.13
2019-05-21T22:32:42.207Z,98107.38
2019-05-21T22:35:13.851Z,98109.39
2019-05-21T22:37:45.561Z,98110.37
2019-05-21T22:40:17.436Z,98107.02
2019-05-21T22:42:49.040Z,98112.63
2019-05-21T22:45:20.629Z,98110.95
2019-05-21T22:47:52.231Z,98113.94
2019-05-21T22:50:24.693Z,98116.31
2019-05-21T22:52:56.374Z,98112.02
2019-05-21T22:55:55.877Z,98116.80
2019-05-21T22:58:27.495Z,98122.50
2019-05-21T23:01:01.009Z,98118.23
2019-05-21T23:03:33.050Z,98117.38
2019-05-21T23:06:04.794Z,98113.57
2019-05-21T23:08:36.772Z,98117.74
2019-05-21T23:11:52.737Z,98110.25
2019-05-21T23:14:24.307Z,98104.89
2019-05-21T23:16:56.170Z,98111.44
2019-05-21T23:19:32.452Z,98111.44
2019-05-21T23:22:14.285Z,98122.38
2019-05-21T23:24:48.171Z,98117.50
2019-05-21T23:27:20.664Z,98117.74
2019-05-21T23:29:52.823Z,98112.25
2019-05-21T23:32:24.894Z,98115.95
2019-05-21T23:34:57.191Z,98113.81
2019-05-21T23:37:28.792Z,98118.69
2019-05-21T23:40:00.951Z,98114.54
2019-05-21T23:42:33.376Z,98118.72
2019-05-21T23:45:05.301Z,98117.98
2019-05-21T23:47:36.855Z,98125.84
2019-05-21T23:50:10.365Z,98120.84
2019-05-21T23:52:42.148Z,98124.78
2019-05-21T23:55:14.718Z,98122.40
2019-05-21T23:57:46.758Z,98118.59
